createdAt,value
2019-03-05T00:02:24.734Z,94720.91
2019-03-05T00:04:57.983Z,94719.67
2019-03-05T00:07:30.877Z,94708.97
2019-03-05T00:10:04.210Z,94716.59
2019-03-05T00:12:37.152Z,94706.44
2019-03-05T00:15:11.925Z,94713.02
2019-03-05T00:17:44.991Z,94711.51
2019-03-05T00:20:17.847Z,94715.14
2019-03-05T00:22:50.787Z,94712.88
2019-03-05T00:25:23.772Z,94717.02
2019-03-05T00:28:10.601Z,94715.39
2019-03-05T00:30:54.926Z,94707.81
2019-03-05T00:34:07.576Z,94712.88
2019-03-05T00:37:02.130Z,94713.78
2019-03-05T00:40:11.440Z,94712.74
2019-03-05T00:43:13.762Z,94700.80
2019-03-05T00:46:45.145Z,94706.98
2019-03-05T00:49:42.135Z,94701.13
2019-03-05T00:52:42.185Z,94705.42
2019-03-05T00:56:27.888Z,94713.63
2019-03-05T00:59:52.724Z,94710.70
2019-03-05T01:03:02.977Z,94702.46
2019-03-05T01:06:18.453Z,94706.72
2019-03-05T01:08:51.109Z,94703.47
2019-03-05T01:11:24.461Z,94707.16
2019-03-05T01:14:01.476Z,94698.77
2019-03-05T01:16:34.780Z,94696.95
2019-03-05T01:19:07.732Z,94689.30
2019-03-05T01:21:40.607Z,94683.97
2019-03-05T01:24:13.567Z,94694.99
2019-03-05T01:26:47.493Z,94689.10
2019-03-05T01:29:20.422Z,94693.47
2019-03-05T01:32:10.713Z,94688.17
2019-03-05T01:35:05.620Z,94703.55
2019-03-05T01:37:38.551Z,94720.69
2019-03-05T01:40:17.542Z,94716.69
2019-03-05T01:42:50.381Z,94715.98
2019-03-05T01:45:23.194Z,94720.48
2019-03-05T01:47:56.133Z,94715.92
2019-03-05T01:50:28.910Z,94704.19
2019-03-05T01:53:01.810Z,94707.83
2019-03-05T01:55:34.608Z,94711.16
2019-03-05T01:58:07.540Z,94696.95
2019-03-05T02:00:40.856Z,94708.60
2019-03-05T02:03:13.710Z,94705.94
2019-03-05T02:05:46.725Z,94696.98
2019-03-05T02:08:19.622Z,94704.98
2019-03-05T02:10:52.450Z,94705.52
2019-03-05T02:13:25.382Z,94696.48
2019-03-05T02:15:58.246Z,94696.47
2019-03-05T02:18:31.234Z,94697.60
2019-03-05T02:21:04.096Z,94703.88
2019-03-05T02:23:56.795Z,94707.28
2019-03-05T02:27:52.031Z,94702.70
2019-03-05T02:31:15.284Z,94686.42
2019-03-05T02:34:20.494Z,94689.19
2019-03-05T02:37:42.209Z,94692.10
2019-03-05T02:41:06.707Z,94692.92
2019-03-05T02:44:24.070Z,94701.00
2019-03-05T02:47:46.049Z,94700.31
2019-03-05T02:51:24.234Z,94689.79
2019-03-05T02:54:57.931Z,94694.30
2019-03-05T02:57:28.042Z,94696.78
2019-03-05T03:00:01.110Z,94695.55
2019-03-05T03:02:51.621Z,94694.03
2019-03-05T03:05:52.453Z,94696.77
2019-03-05T03:08:25.401Z,94693.91
2019-03-05T03:10:58.214Z,94702.45
2019-03-05T03:13:31.215Z,94703.19
2019-03-05T03:16:04.112Z,94701.74
2019-03-05T03:18:37.000Z,94697.50
2019-03-05T03:21:09.919Z,94703.81
2019-03-05T03:23:43.062Z,94702.16
2019-03-05T03:26:15.958Z,94706.25
2019-03-05T03:28:48.825Z,94713.53
2019-03-05T03:31:21.721Z,94705.23
2019-03-05T03:33:54.750Z,94701.30
2019-03-05T03:36:27.685Z,94706.91
2019-03-05T03:39:00.529Z,94697.56
2019-03-05T03:41:33.622Z,94708.88
2019-03-05T03:44:06.609Z,94703.70
2019-03-05T03:46:39.511Z,94710.50
2019-03-05T03:49:12.449Z,94715.61
2019-03-05T03:51:45.319Z,94717.23
2019-03-05T03:54:18.277Z,94714.77
2019-03-05T03:56:51.294Z,94716.69
2019-03-05T03:59:24.167Z,94713.91
2019-03-05T04:01:57.161Z,94718.31
2019-03-05T04:04:30.067Z,94718.31
2019-03-05T04:07:03.085Z,94723.78
2019-03-05T04:09:36.020Z,94728.72
2019-03-05T04:12:08.949Z,94718.77
2019-03-05T04:14:41.840Z,94721.69
2019-03-05T04:17:14.724Z,94719.98
2019-03-05T04:19:47.668Z,94721.81
2019-03-05T04:22:20.715Z,94704.41
2019-03-05T04:24:53.518Z,94709.52
2019-03-05T04:27:26.386Z,94712.58
2019-03-05T04:29:59.199Z,94717.33
2019-03-05T04:32:32.048Z,94722.22
2019-03-05T04:35:05.329Z,94718.37
2019-03-05T04:37:39.606Z,94731.66
2019-03-05T04:40:13.788Z,94726.00
2019-03-05T04:42:46.824Z,94727.02
2019-03-05T04:45:49.313Z,94735.25
2019-03-05T04:48:22.273Z,94735.78
2019-03-05T04:50:58.638Z,94735.78
2019-03-05T04:53:31.578Z,94731.55
2019-03-05T04:56:04.474Z,94740.84
2019-03-05T04:58:37.323Z,94739.19
2019-03-05T05:01:10.254Z,94733.10
2019-03-05T05:03:43.113Z,94741.79
2019-03-05T05:06:16.049Z,94733.25
2019-03-05T05:08:48.960Z,94745.16
2019-03-05T05:11:21.938Z,94744.05
2019-03-05T05:13:54.937Z,94741.86
2019-03-05T05:16:27.780Z,94747.92
2019-03-05T05:19:00.682Z,94743.81
2019-03-05T05:21:33.615Z,94744.51
2019-03-05T05:24:06.859Z,94736.17
2019-03-05T05:26:39.730Z,94750.82
2019-03-05T05:29:12.699Z,94757.42
2019-03-05T05:31:45.605Z,94759.80
2019-03-05T05:34:18.531Z,94760.46
2019-03-05T05:36:51.415Z,94758.25
2019-03-05T05:40:17.920Z,94752.93
2019-03-05T05:42:50.906Z,94751.22
2019-03-05T05:45:26.771Z,94750.28
2019-03-05T05:47:59.709Z,94752.59
2019-03-05T05:50:32.570Z,94749.66
2019-03-05T05:53:05.449Z,94757.29
2019-03-05T05:55:38.331Z,94756.00
2019-03-05T05:58:11.534Z,94765.70
2019-03-05T06:00:47.171Z,94761.08
2019-03-05T06:03:20.151Z,94759.80
2019-03-05T06:05:53.042Z,94763.70
2019-03-05T06:08:28.606Z,94761.40
2019-03-05T06:11:01.550Z,94777.34
2019-03-05T06:13:34.486Z,94782.31
2019-03-05T06:16:07.422Z,94783.95
2019-03-05T06:18:40.344Z,94787.37
2019-03-05T06:21:13.367Z,94789.99
2019-03-05T06:23:46.430Z,94791.28
2019-03-05T06:26:19.466Z,94793.89
2019-03-05T06:28:52.406Z,94797.08
2019-03-05T06:31:25.320Z,94795.53
2019-03-05T06:33:58.192Z,94795.17
2019-03-05T06:36:57.037Z,94792.64
2019-03-05T06:39:30.051Z,94792.12
2019-03-05T06:42:02.931Z,94797.13
2019-03-05T06:44:35.379Z,94794.52
2019-03-05T06:47:08.407Z,94797.28
2019-03-05T06:49:41.434Z,94801.45
2019-03-05T06:52:14.624Z,94796.98
2019-03-05T06:54:47.504Z,94811.14
2019-03-05T06:57:20.477Z,94802.45
2019-03-05T06:59:53.503Z,94807.16
2019-03-05T07:02:26.391Z,94809.13
2019-03-05T07:05:00.579Z,94815.30
2019-03-05T07:07:34.022Z,94816.30
2019-03-05T07:10:53.635Z,94811.60
2019-03-05T07:13:26.531Z,94814.15
2019-03-05T07:16:15.132Z,94818.21
2019-03-05T07:19:02.386Z,94834.19
2019-03-05T07:22:24.589Z,94823.90
2019-03-05T07:24:57.581Z,94827.44
2019-03-05T07:27:49.112Z,94831.45
2019-03-05T07:30:24.030Z,94835.03
2019-03-05T07:32:58.849Z,94829.28
2019-03-05T07:35:34.261Z,94836.14
2019-03-05T07:38:07.503Z,94836.70
2019-03-05T07:40:40.399Z,94832.52
2019-03-05T07:43:13.258Z,94827.52
2019-03-05T07:45:46.199Z,94832.37
2019-03-05T07:48:19.126Z,94837.92
2019-03-05T07:50:52.025Z,94835.86
2019-03-05T07:53:24.839Z,94835.66
2019-03-05T07:55:57.751Z,94832.05
2019-03-05T07:58:30.810Z,94837.92
2019-03-05T08:01:04.703Z,94840.04
2019-03-05T08:03:37.688Z,94842.36
2019-03-05T08:06:10.744Z,94838.24
2019-03-05T08:09:32.500Z,94843.84
2019-03-05T08:13:01.870Z,94844.95
2019-03-05T08:16:19.737Z,94835.97
2019-03-05T08:18:52.709Z,94834.50
2019-03-05T08:21:25.717Z,94837.80
2019-03-05T08:23:58.758Z,94836.81
2019-03-05T08:26:32.017Z,94840.85
2019-03-05T08:29:05.134Z,94845.44
2019-03-05T08:31:38.079Z,94840.44
2019-03-05T08:34:11.173Z,94843.80
2019-03-05T08:36:44.148Z,94843.28
2019-03-05T08:39:17.779Z,94844.95
2019-03-05T08:41:50.846Z,94844.27
2019-03-05T08:44:23.518Z,94843.80
2019-03-05T08:46:56.577Z,94852.00
2019-03-05T08:49:29.650Z,94844.46
2019-03-05T08:52:02.614Z,94855.80
2019-03-05T08:54:35.576Z,94853.73
2019-03-05T08:57:08.533Z,94841.67
2019-03-05T08:59:41.613Z,94832.99
2019-03-05T09:02:13.851Z,94841.84
2019-03-05T09:04:46.775Z,94846.35
2019-03-05T09:07:20.062Z,94846.25
2019-03-05T09:09:53.157Z,94844.09
2019-03-05T09:12:26.260Z,94840.91
2019-03-05T09:14:59.248Z,94837.72
2019-03-05T09:17:32.233Z,94843.66
2019-03-05T09:20:06.306Z,94847.44
2019-03-05T09:22:39.259Z,94842.84
2019-03-05T09:25:14.611Z,94834.41
2019-03-05T09:27:47.639Z,94835.29
2019-03-05T09:30:21.178Z,94833.30
2019-03-05T09:32:54.279Z,94830.97
2019-03-05T09:35:27.303Z,94824.12
2019-03-05T09:38:00.337Z,94825.52
2019-03-05T09:40:33.340Z,94819.09
2019-03-05T09:43:06.227Z,94807.75
2019-03-05T09:45:39.216Z,94810.48
2019-03-05T09:48:12.349Z,94817.05
2019-03-05T09:50:45.273Z,94816.83
2019-03-05T09:53:18.185Z,94806.25
2019-03-05T09:55:51.890Z,94797.42
2019-03-05T09:58:24.804Z,94804.41
2019-03-05T10:00:57.800Z,94799.18
2019-03-05T10:03:30.938Z,94809.95
2019-03-05T10:06:04.309Z,94801.32
2019-03-05T10:08:37.279Z,94803.14
2019-03-05T10:11:09.684Z,94805.47
2019-03-05T10:13:42.699Z,94798.31
2019-03-05T10:16:15.765Z,94797.42
2019-03-05T10:18:48.779Z,94799.75
2019-03-05T10:21:21.776Z,94804.33
2019-03-05T10:23:54.685Z,94810.05
2019-03-05T10:26:27.722Z,94818.31
2019-03-05T10:29:00.742Z,94799.66
2019-03-05T10:31:33.723Z,94807.95
2019-03-05T10:34:06.742Z,94799.00
2019-03-05T10:36:39.779Z,94800.19
2019-03-05T10:39:30.862Z,94796.39
2019-03-05T10:42:03.772Z,94798.25
2019-03-05T10:44:36.728Z,94802.87
2019-03-05T10:47:10.107Z,94816.09
2019-03-05T10:49:43.083Z,94827.63
2019-03-05T10:52:16.813Z,94814.65
2019-03-05T10:54:49.976Z,94821.89
2019-03-05T10:57:22.894Z,94802.43
2019-03-05T10:59:55.779Z,94814.52
2019-03-05T11:02:29.030Z,94814.36
2019-03-05T11:05:02.524Z,94805.52
2019-03-05T11:07:35.526Z,94805.08
2019-03-05T11:10:11.167Z,94807.93
2019-03-05T11:12:44.256Z,94805.09
2019-03-05T11:15:24.234Z,94801.52
2019-03-05T11:17:57.614Z,94809.15
2019-03-05T11:20:30.621Z,94801.33
2019-03-05T11:23:03.553Z,94793.15
2019-03-05T11:25:36.722Z,94771.97
2019-03-05T11:28:09.760Z,94781.48
2019-03-05T11:30:42.737Z,94780.20
2019-03-05T11:33:16.247Z,94772.78
2019-03-05T11:35:49.422Z,94774.28
2019-03-05T11:38:23.080Z,94776.52
2019-03-05T11:40:56.079Z,94774.54
2019-03-05T11:43:29.102Z,94775.31
2019-03-05T11:46:02.119Z,94785.44
2019-03-05T11:48:35.106Z,94782.36
2019-03-05T11:51:08.141Z,94777.20
2019-03-05T11:53:41.128Z,94771.90
2019-03-05T11:56:14.404Z,94780.05
2019-03-05T11:58:47.329Z,94778.95
2019-03-05T12:01:45.019Z,94776.44
2019-03-05T12:04:18.080Z,94771.64
2019-03-05T12:06:51.047Z,94777.84
2019-03-05T12:09:24.182Z,94764.97
2019-03-05T12:11:57.407Z,94760.81
2019-03-05T12:14:30.421Z,94734.47
2019-03-05T12:17:03.468Z,94735.63
2019-03-05T12:19:36.594Z,94757.83
2019-03-05T12:22:09.711Z,94750.13
2019-03-05T12:24:42.683Z,94748.27
2019-03-05T12:27:15.754Z,94744.58
2019-03-05T12:29:48.861Z,94740.45
2019-03-05T12:32:21.791Z,94738.33
2019-03-05T12:34:54.836Z,94742.03
2019-03-05T12:37:27.904Z,94748.22
2019-03-05T12:40:00.956Z,94737.26
2019-03-05T12:42:33.928Z,94746.16
2019-03-05T12:45:08.127Z,94745.16
2019-03-05T12:47:41.095Z,94738.45
2019-03-05T12:50:17.904Z,94745.12
2019-03-05T12:52:51.608Z,94738.47
2019-03-05T12:55:26.020Z,94749.00
2019-03-05T12:57:59.033Z,94738.88
2019-03-05T13:00:32.953Z,94738.87
2019-03-05T13:03:06.117Z,94736.11
2019-03-05T13:05:39.115Z,94735.84
2019-03-05T13:08:12.228Z,94737.91
2019-03-05T13:10:45.396Z,94738.20
2019-03-05T13:13:18.300Z,94734.78
2019-03-05T13:15:52.925Z,94744.38
2019-03-05T13:18:26.913Z,94734.28
2019-03-05T13:21:03.576Z,94726.86
2019-03-05T13:23:35.328Z,94730.34
2019-03-05T13:26:09.243Z,94730.22
2019-03-05T13:28:42.589Z,94731.17
2019-03-05T13:31:15.615Z,94729.27
2019-03-05T13:33:48.613Z,94727.84
2019-03-05T13:36:21.790Z,94741.97
2019-03-05T13:38:54.824Z,94742.13
2019-03-05T13:41:27.961Z,94746.92
2019-03-05T13:44:00.952Z,94738.38
2019-03-05T13:46:34.047Z,94752.09
2019-03-05T13:49:57.528Z,94758.91
2019-03-05T13:53:36.003Z,94756.34
2019-03-05T13:56:54.718Z,94759.14
2019-03-05T13:59:47.972Z,94743.59
2019-03-05T14:02:31.308Z,94755.85
2019-03-05T14:05:43.948Z,94756.44
2019-03-05T14:08:56.257Z,94746.09
2019-03-05T14:11:29.197Z,94737.84
2019-03-05T14:14:02.206Z,94741.16
2019-03-05T14:16:35.318Z,94746.70
2019-03-05T14:19:08.315Z,94752.46
2019-03-05T14:21:41.300Z,94739.21
2019-03-05T14:24:14.530Z,94734.92
2019-03-05T14:26:49.525Z,94735.84
2019-03-05T14:29:22.606Z,94744.25
2019-03-05T14:31:55.699Z,94731.52
2019-03-05T14:34:28.732Z,94741.42
2019-03-05T14:37:01.850Z,94736.10
2019-03-05T14:39:36.275Z,94752.88
2019-03-05T14:42:10.610Z,94752.80
2019-03-05T14:44:44.225Z,94757.17
2019-03-05T14:47:17.310Z,94741.86
2019-03-05T14:49:50.683Z,94744.73
2019-03-05T14:52:23.650Z,94743.38
2019-03-05T14:54:57.104Z,94754.30
2019-03-05T14:57:30.053Z,94753.36
2019-03-05T15:00:03.221Z,94764.08
2019-03-05T15:02:36.790Z,94760.98
2019-03-05T15:05:10.768Z,94762.83
2019-03-05T15:07:43.888Z,94767.89
2019-03-05T15:10:16.909Z,94779.02
2019-03-05T15:12:50.896Z,94775.09
2019-03-05T15:15:29.850Z,94773.53
2019-03-05T15:18:02.802Z,94774.70
2019-03-05T15:20:35.732Z,94777.83
2019-03-05T15:23:08.776Z,94785.12
2019-03-05T15:25:41.784Z,94782.98
2019-03-05T15:28:14.731Z,94779.90
2019-03-05T15:30:47.789Z,94787.65
2019-03-05T15:33:20.828Z,94785.85
2019-03-05T15:35:53.800Z,94783.03
2019-03-05T15:38:26.732Z,94789.77
2019-03-05T15:40:59.733Z,94791.35
2019-03-05T15:43:32.765Z,94791.88
2019-03-05T15:46:05.956Z,94793.89
2019-03-05T15:48:39.099Z,94794.30
2019-03-05T15:51:12.143Z,94787.23
2019-03-05T15:56:19.189Z,94794.02
2019-03-05T15:58:52.212Z,94788.13
2019-03-05T16:01:25.403Z,94791.83
2019-03-05T16:03:58.855Z,94785.57
2019-03-05T16:06:34.129Z,94783.95
2019-03-05T16:09:16.886Z,94776.80
2019-03-05T16:11:49.803Z,94783.20
2019-03-05T16:14:22.750Z,94786.06
2019-03-05T16:16:55.722Z,94795.08
2019-03-05T16:19:29.103Z,94791.83
2019-03-05T16:22:02.194Z,94785.20
2019-03-05T16:24:37.467Z,94791.72
2019-03-05T16:27:09.996Z,94797.75
2019-03-05T16:29:43.079Z,94794.47
2019-03-05T16:32:27.049Z,94793.34
2019-03-05T16:35:18.432Z,94793.86
2019-03-05T16:37:57.745Z,94791.64
2019-03-05T16:41:02.424Z,94790.49
2019-03-05T16:43:54.136Z,94793.30
2019-03-05T16:46:48.963Z,94802.81
2019-03-05T16:49:49.802Z,94805.75
2019-03-05T16:52:47.698Z,94810.23
2019-03-05T16:55:51.463Z,94808.45
2019-03-05T16:58:49.023Z,94812.76
2019-03-05T17:01:30.026Z,94813.88
2019-03-05T17:04:25.805Z,94816.36
2019-03-05T17:07:15.119Z,94818.50
2019-03-05T17:09:56.027Z,94825.41
2019-03-05T17:12:31.509Z,94835.54
2019-03-05T17:15:04.745Z,94838.92
2019-03-05T17:17:37.737Z,94842.34
2019-03-05T17:20:12.241Z,94833.52
2019-03-05T17:22:45.460Z,94840.63
2019-03-05T17:25:18.892Z,94847.63
2019-03-05T17:27:53.106Z,94849.98
2019-03-05T17:30:26.093Z,94856.05
2019-03-05T17:32:58.996Z,94855.69
2019-03-05T17:35:31.842Z,94862.30
2019-03-05T17:38:04.899Z,94860.20
2019-03-05T17:40:37.876Z,94861.96
2019-03-05T17:43:10.671Z,94864.31
2019-03-05T17:45:43.828Z,94871.11
2019-03-05T17:48:16.639Z,94869.66
2019-03-05T17:50:49.489Z,94871.69
2019-03-05T17:53:22.307Z,94874.68
2019-03-05T17:55:55.186Z,94878.39
2019-03-05T17:58:28.007Z,94877.70
2019-03-05T18:01:00.881Z,94875.58
2019-03-05T18:03:33.738Z,94881.11
2019-03-05T18:06:06.824Z,94879.44
2019-03-05T18:08:38.882Z,94887.91
2019-03-05T18:11:11.773Z,94886.95
2019-03-05T18:13:44.759Z,94892.27
2019-03-05T18:16:17.730Z,94889.54
2019-03-05T18:18:50.577Z,94896.32
2019-03-05T18:21:23.455Z,94895.22
2019-03-05T18:23:56.343Z,94900.37
2019-03-05T18:26:29.212Z,94901.41
2019-03-05T18:29:02.154Z,94899.09
2019-03-05T18:31:35.173Z,94905.06
2019-03-05T18:34:08.614Z,94903.52
2019-03-05T18:36:41.553Z,94906.23
2019-03-05T18:39:15.286Z,94908.31
2019-03-05T18:41:48.221Z,94903.92
2019-03-05T18:44:21.286Z,94909.27
2019-03-05T18:46:54.204Z,94909.17
2019-03-05T18:49:27.085Z,94913.66
2019-03-05T18:52:00.128Z,94917.11
2019-03-05T18:54:33.222Z,94907.13
2019-03-05T18:57:06.137Z,94911.40
2019-03-05T18:59:39.120Z,94906.50
2019-03-05T19:02:12.171Z,94906.07
2019-03-05T19:04:45.014Z,94902.31
2019-03-05T19:07:17.882Z,94909.98
2019-03-05T19:09:51.014Z,94913.27
2019-03-05T19:12:23.865Z,94914.53
2019-03-05T19:14:56.810Z,94910.37
2019-03-05T19:17:29.796Z,94910.13
2019-03-05T19:20:02.902Z,94910.56
2019-03-05T19:22:35.139Z,94910.74
2019-03-05T19:25:11.078Z,94909.69
2019-03-05T19:27:43.894Z,94914.80
2019-03-05T19:30:21.086Z,94912.65
2019-03-05T19:32:53.899Z,94909.87
2019-03-05T19:35:26.761Z,94910.59
2019-03-05T19:37:59.634Z,94917.69
2019-03-05T19:40:35.017Z,94910.66
2019-03-05T19:43:07.873Z,94909.41
2019-03-05T19:45:40.814Z,94912.13
2019-03-05T19:48:13.418Z,94918.54
2019-03-05T19:50:46.980Z,94917.05
2019-03-05T19:53:19.796Z,94917.34
2019-03-05T19:55:52.746Z,94917.87
2019-03-05T19:58:25.782Z,94919.20
2019-03-05T20:01:05.260Z,94916.07
2019-03-05T20:03:38.194Z,94902.36
2019-03-05T20:06:11.681Z,94906.89
2019-03-05T20:08:44.616Z,94909.14
2019-03-05T20:11:17.776Z,94911.15
2019-03-05T20:13:50.769Z,94909.20
2019-03-05T20:16:24.040Z,94913.84
2019-03-05T20:18:57.236Z,94911.08
2019-03-05T20:21:30.682Z,94908.84
2019-03-05T20:24:03.631Z,94912.02
2019-03-05T20:26:36.650Z,94906.55
2019-03-05T20:29:09.551Z,94905.34
2019-03-05T20:31:42.469Z,94904.86
2019-03-05T20:34:14.554Z,94906.17
2019-03-05T20:36:47.474Z,94896.16
2019-03-05T20:39:20.630Z,94905.89
2019-03-05T20:41:53.689Z,94909.17
2019-03-05T20:44:26.638Z,94901.31
2019-03-05T20:46:59.678Z,94898.72
2019-03-05T20:49:35.333Z,94890.50
2019-03-05T20:52:08.259Z,94886.45
2019-03-05T20:54:41.300Z,94887.79
2019-03-05T20:57:14.182Z,94886.89
2019-03-05T20:59:47.130Z,94891.84
2019-03-05T21:02:20.549Z,94893.53
2019-03-05T21:04:53.556Z,94895.37
2019-03-05T21:07:26.392Z,94889.59
2019-03-05T21:09:59.356Z,94885.55
2019-03-05T21:12:32.467Z,94882.43
2019-03-05T21:15:05.853Z,94895.88
2019-03-05T21:17:38.831Z,94888.33
2019-03-05T21:20:13.230Z,94896.27
2019-03-05T21:22:46.220Z,94889.83
2019-03-05T21:25:18.632Z,94887.53
2019-03-05T21:27:51.744Z,94888.69
2019-03-05T21:30:24.742Z,94877.70
2019-03-05T21:32:57.747Z,94874.30
2019-03-05T21:35:30.580Z,94874.34
2019-03-05T21:38:03.671Z,94874.54
2019-03-05T21:40:36.923Z,94872.27
2019-03-05T21:43:09.804Z,94864.05
2019-03-05T21:45:42.849Z,94862.91
2019-03-05T21:48:16.067Z,94856.00
2019-03-05T21:50:48.991Z,94851.64
2019-03-05T21:53:21.889Z,94855.86
2019-03-05T21:55:54.848Z,94847.14
2019-03-05T21:58:27.813Z,94853.91
2019-03-05T22:01:00.758Z,94845.83
2019-03-05T22:03:33.647Z,94856.80
2019-03-05T22:06:06.771Z,94854.53
2019-03-05T22:08:39.903Z,94845.98
2019-03-05T22:11:12.903Z,94850.68
2019-03-05T22:13:45.853Z,94846.48
2019-03-05T22:16:18.903Z,94846.84
2019-03-05T22:18:51.923Z,94842.31
2019-03-05T22:21:24.958Z,94838.59
2019-03-05T22:23:59.784Z,94845.18
2019-03-05T22:26:32.787Z,94839.58
2019-03-05T22:29:05.703Z,94858.73
2019-03-05T22:31:38.537Z,94843.24
2019-03-05T22:34:11.451Z,94844.36
2019-03-05T22:36:44.412Z,94841.29
2019-03-05T22:39:17.704Z,94840.45
2019-03-05T22:41:50.585Z,94840.80
2019-03-05T22:44:23.549Z,94836.59
2019-03-05T22:46:59.306Z,94832.56
2019-03-05T22:49:32.272Z,94836.02
2019-03-05T22:52:06.043Z,94823.84
2019-03-05T22:54:39.649Z,94824.28
2019-03-05T22:57:12.590Z,94832.46
2019-03-05T22:59:45.423Z,94823.30
2019-03-05T23:02:18.507Z,94824.94
2019-03-05T23:04:51.454Z,94826.13
2019-03-05T23:07:24.344Z,94828.30
2019-03-05T23:09:57.481Z,94825.52
2019-03-05T23:12:30.311Z,94833.70
2019-03-05T23:15:04.760Z,94826.91
2019-03-05T23:17:37.645Z,94825.78
2019-03-05T23:20:11.693Z,94823.29
2019-03-05T23:22:44.839Z,94815.44
2019-03-05T23:25:19.620Z,94819.48
2019-03-05T23:27:52.561Z,94810.39
2019-03-05T23:30:25.548Z,94808.22
2019-03-05T23:32:58.704Z,94805.73
2019-03-05T23:35:32.021Z,94809.41
2019-03-05T23:38:04.975Z,94794.63
2019-03-05T23:40:38.013Z,94797.98
2019-03-05T23:43:11.140Z,94785.84
2019-03-05T23:45:44.123Z,94785.38
2019-03-05T23:48:16.997Z,94790.27
2019-03-05T23:50:49.981Z,94786.62
2019-03-05T23:53:22.879Z,94782.57
2019-03-05T23:55:56.247Z,94782.58
2019-03-05T23:58:29.104Z,94772.84
